Rock, Kansas
Current Conditions -  °F | °C
As of 10:18 PM on Sunday 21 Dec 2014 (Local Time) from KIAB Reporting Station
Overcast Overcast  
Wind Chill: 37°   Ceiling: 500
Heat Index: 45°   Visibility: 9mi
Dew Point: 43°   Wind: 16mph
Humidity: 93%   Direction: 150°SSE
Pressure: 29.67"   Gusts: NA
Location:  37.44°N, 97.01°W
Report Text: KIAB 220418Z AUTO 15014KT 9SM R19/5500FT OVC005 07/06 A2967 RMK AO2
Loading
Personal Weather Stations






























Interactive Weather Map New forecast layout! Learn more

10-Day Weather Forecast

Advertisements
Track Severe Weather on mobile